• Join FlightAware (Why Join?)
  • Login
  • US Flag 
10:00PM EST


 

Airport Tracker/Info


-or-


 

Live Flight TrackerFlight Track Log ✈ EGF4247 ✈ 19-Apr-2013 ✈ KBUF - KORD

Flight Track Log - Related Links

Times and Time Zones

All times are in EDT time to prevent confusion due to time zone crossing. See the EGF4247 flight status page for this flight to view local times or setup timezone preferences in your user account.

Time Position Orientation Groundspeed Altitude Reporting Facility
EDT Latitude Longitude Course Direction KTS MPH feet Rate Location/Type
05:56PM 42.9167 -78.7500 270° West 154 177 1,900  Level Buffalo TRACON
05:57PM 42.9000 -78.7667 216° Southwest 172 198 3,700 2,220 Climbing Buffalo TRACON
05:58PM 42.9500 -78.9369 270° West  Level FlightAware Approximate
05:58PM 42.9167 -78.8333 289° West 222 255 5,500  Level Buffalo TRACON
05:59PM 42.9500 -79.0482 270° West  Level FlightAware Approximate
05:59PM 42.9167 -78.9167 270° West 220 253 8,100  Level Buffalo TRACON
06:00PM 42.9577 -79.1590 277° West  Level FlightAware Approximate
06:00PM 42.9167 -79.0000 270° West 221 254 10,300  Level Buffalo TRACON
06:01PM 42.9667 -79.2698 270° West  Level FlightAware Approximate
06:01PM 42.9333 -79.0833 285° West 248 285 11,500  Level Buffalo TRACON
06:02PM 42.9667 -79.3812 270° West  Level FlightAware Approximate
06:02PM 42.9333 -79.2000 270° West 311 358 12,400  Level Buffalo TRACON
06:03PM 42.9333 -79.3000 270° West 300 345 13,800 1,440 Climbing Toronto Center
06:04PM 42.9333 -79.4000 270° West 310 357 15,200 1,500 Climbing Toronto Center
06:05PM 42.9500 -79.5167 281° West 300 345 16,800 1,800 Climbing Toronto Center
06:06PM 42.9500 -79.6333 270° West 300 345 18,900 1,680 Climbing Toronto Center
06:07PM 42.9667 -79.7500 281° West 300 345 20,200 1,260 Climbing Toronto Center
06:08PM 42.9667 -79.8667 270° West 300 345 21,500 1,440 Climbing Toronto Center
06:09PM 42.9667 -79.9667 270° West 300 345 23,100 1,560 Climbing Toronto Center
06:10PM 42.9833 -80.0833 281° West 300 345 24,700 1,440 Climbing Toronto Center
06:11PM 42.9833 -80.2000 270° West 290 334 26,000 600 Climbing Toronto Center
06:12PM 43.0000 -80.3167 281° West 300 345 26,000  Level Toronto Center
06:13PM 43.0000 -80.4333 270° West 330 380 26,000  Level Toronto Center
06:14PM 43.0000 -80.5667 270° West 340 391 26,000  Level Toronto Center
06:15PM 43.0167 -80.7000 280° West 340 391 26,000  Level Toronto Center
06:16PM 43.0000 -80.8167 259° West 340 391 26,000  Level Toronto Center
06:17PM 43.0167 -80.9500 280° West 340 391 26,000  Level Toronto Center
06:18PM 43.0167 -81.0667 270° West 330 380 26,000  Level Toronto Center
06:19PM 43.0167 -81.2000 270° West 320 368 26,000  Level Toronto Center
06:20PM 43.0167 -81.3167 270° West 310 357 26,000  Level Toronto Center
06:21PM 43.0167 -81.4333 270° West 310 357 26,000  Level Toronto Center
06:22PM 43.0167 -81.5667 270° West 320 368 26,000  Level Toronto Center
06:23PM 43.0167 -81.6833 270° West 320 368 26,000  Level Toronto Center
06:24PM 43.0167 -81.8167 270° West 330 380 26,000  Level Toronto Center
06:25PM 43.0000 -81.9333 259° West 340 391 26,000  Level Toronto Center
06:26PM 43.0000 -82.0667 270° West 340 391 26,000  Level Toronto Center
06:27PM 43.0000 -82.1833 270° West 330 380 26,000  Level Toronto Center
06:28PM 43.0000 -82.3167 270° West 330 380 26,000  Level Toronto Center
06:29PM 43.0000 -82.4333 270° West 330 380 26,000  Level Toronto Center
06:30PM 43.0000 -82.5667 270° West 340 391 26,000  Level Toronto Center
06:31PM 42.9989 -82.7264 270° West 339 390 26,000  Level Cleveland Center
06:32PM 42.9964 -82.8597 269° West 346 398 26,000  Level Cleveland Center
06:33PM 42.9914 -82.9931 267° West 346 398 26,000  Level Cleveland Center
06:34PM 42.9844 -83.1319 266° West 351 404 26,000  Level Cleveland Center
06:35PM 42.9731 -83.2647 263° West 351 404 26,000  Level Cleveland Center
06:36PM 42.9633 -83.4061 265° West 364 419 26,000  Level Cleveland Center
06:37PM 42.9536 -83.5419 264° West 369 425 26,000  Level Cleveland Center
06:38PM 42.9417 -83.6861 264° West 369 425 26,000  Level Cleveland Center
06:39PM 42.9294 -83.8272 263° West 374 430 26,000  Level Cleveland Center
06:40PM 42.9192 -83.9656 264° West 374 430 26,000  Level Cleveland Center
06:41PM 42.9064 -84.1094 263° West 374 430 26,000  Level Cleveland Center
06:42PM 42.8958 -84.2508 264° West 379 436 26,000  Level Cleveland Center
06:44PM 42.8775 -84.4856 264° West 387 445 26,000  Level Chicago Center
06:45PM 42.8653 -84.6311 264° West 389 448 26,000  Level Chicago Center
06:46PM 42.8522 -84.7764 263° West 388 447 26,000  Level Chicago Center
06:47PM 42.8381 -84.9475 264° West 381 438 26,000  Level Chicago Center
06:48PM 42.8242 -85.0925 263° West 384 442 26,000  Level Chicago Center
06:49PM 42.8108 -85.2392 263° West 390 449 26,000  Level Chicago Center
06:50PM 42.7964 -85.3881 263° West 395 455 26,000  Level Chicago Center
06:51PM 42.7811 -85.5364 262° West 398 458 26,000 -300 Level Chicago Center
06:52PM 42.7547 -85.6806 256° West 392 451 25,500 -1,020 Descending Chicago Center
06:53PM 42.7283 -85.8192 256° West 381 438 23,900 -1,500 Descending Chicago Center
06:54PM 42.7039 -85.9544 256° West 369 425 22,400 -1,680 Descending Chicago Center
06:55PM 42.6747 -86.1156 256° West 365 420 20,500 -1,200 Descending Chicago Center
06:56PM 42.6508 -86.2458 256° West 359 413 20,000 -1,080 Descending Chicago Center
06:57PM 42.6264 -86.3703 255° West 344 396 18,300 -1,860 Descending Chicago Center
06:58PM 42.6039 -86.4942 256° West 338 389 16,300 -1,860 Descending Chicago Center
06:59PM 42.5814 -86.6153 256° West 333 383 14,500 -1,500 Descending Chicago Center
07:00PM 42.5606 -86.7308 256° West 318 366 13,200 -1,200 Descending Chicago Center
07:01PM 42.5317 -86.8311 249° West 290 334 12,100 -1,260 Descending Chicago Center
07:02PM 42.4992 -86.9542 250° West 290 334 10,700 -1,080 Descending Chicago Center
07:03PM 42.4706 -87.0539 249° West 284 327 10,000 -360 Descending Chicago Center
07:04PM 42.4431 -87.1528 249° West 283 326 10,000 -360 Level Chicago Center
07:05PM 42.4200 -87.2369 250° West 241 277 9,300 -540 Descending Chicago Center
07:06PM 42.3486 -87.2511 188° South 268 308 9,000 -180 Descending Chicago Center
07:07PM 42.2661 -87.2506 180° South 272 313 9,000 -420 Level Chicago Center
07:08PM 42.1908 -87.2506 180° South 270 311 8,200 -720 Descending Chicago Center
07:09PM 42.1233 -87.2525 181° South 247 284 7,600 -600 Descending Chicago Center
07:10PM 42.0586 -87.2158 157° South 261 300 7,000 -300 Descending Chicago Center
07:11PM 41.9969 -87.2069 174° South 245 282 7,000  Level Chicago Center
07:12PM 41.9808 -87.2944 256° West 209 241 7,000  Level Chicago Center
07:13PM 41.9836 -87.3717 273° West 210 242 7,000  Level Chicago Center
07:14PM 41.9833 -87.4000 269° West 195 224 7,000  Level Chicago TRACON
07:15PM 41.9833 -87.4500 270° West 174 200 7,000 -360 Level Chicago TRACON
07:16PM 41.9833 -87.5333 270° West 178 205 6,300 -900 Descending Chicago TRACON
07:17PM 41.9833 -87.6000 270° West 168 193 5,200 -1,140 Descending Chicago TRACON